Terminal Aerodrome Forecast
Issued by NWS Paducah, KY

Home | Current Version | Previous Version | Text Only | Print | Product List | Glossary On
Versions: 1 2 3 4 5 6 7 8 9 10 11 12 13 14 15 16 17 18 19 20 21 22 23
000
FTUS43 KPAH 272211 AAA
TAFEVV
TAF AMD
KEVV 272211Z 2722/2818 26008KT P6SM SCT025 BKN040
     FM280200 19003KT P6SM SCT040
     FM280800 13004KT P6SM SCT100 BKN250
     FM281400 15012G20KT P6SM SCT050 BKN100=

USA.gov is the U.S. government's official web portal to all federal, state and local government web resources and services.